Terminal Aerodrome Forecast
Issued by NWS Cleveland, OH

Home | Current Version | Previous Version | Graphics & Text | Print | Product List | Glossary On
Versions: 1 2 3 4 5 6 7 8 9 10 11 12 13 14 15 16 17 18 19 20 21 22 23 24 25 26
000
FTUS41 KCLE 231733
TAFERI
TAF
KERI 231733Z 2318/2418 VRB03KT P6SM SCT250
     FM240400 16012KT P6SM OVC100
     FM240800 17015KT P6SM -SHRA OVC035
     FM241100 19020G28KT P6SM OVC040=

USA.gov is the U.S. government's official web portal to all federal, state and local government web resources and services.